sensor_id;sensor_type;location;lat;lon;timestamp;temperature;humidity
1165;DHT22;571;50.930;6.926;2024-01-16T03:46:28;2.50;99.90
1165;DHT22;571;50.930;6.926;2024-01-16T03:49:23;2.50;99.90
1165;DHT22;571;50.930;6.926;2024-01-16T03:51:59;2.50;99.90
1165;DHT22;571;50.930;6.926;2024-01-16T03:54:42;2.40;99.90
1165;DHT22;571;50.930;6.926;2024-01-16T03:57:48;2.50;99.90
1165;DHT22;571;50.930;6.926;2024-01-16T04:00:27;2.50;99.90
1165;DHT22;571;50.930;6.926;2024-01-16T04:16:30;2.40;99.90
1165;DHT22;571;50.930;6.926;2024-01-16T04:19:21;2.40;99.90
1165;DHT22;571;50.930;6.926;2024-01-16T04:53:44;2.50;99.90
1165;DHT22;571;50.930;6.926;2024-01-16T04:56:39;2.50;99.90
1165;DHT22;571;50.930;6.926;2024-01-16T05:13:22;2.50;99.90
1165;DHT22;571;50.930;6.926;2024-01-16T05:15:58;2.40;99.90
1165;DHT22;571;50.930;6.926;2024-01-16T05:18:45;2.40;99.90
1165;DHT22;571;50.930;6.926;2024-01-16T07:44:05;2.10;99.90
1165;DHT22;571;50.930;6.926;2024-01-16T07:47:25;2.20;99.90
1165;DHT22;571;50.930;6.926;2024-01-16T08:01:06;2.30;99.90
1165;DHT22;571;50.930;6.926;2024-01-16T10:02:19;2.80;99.90
1165;DHT22;571;50.930;6.926;2024-01-16T10:04:46;2.90;99.90
1165;DHT22;571;50.930;6.926;2024-01-16T10:07:14;2.90;99.90
1165;DHT22;571;50.930;6.926;2024-01-16T10:09:43;2.90;99.90
1165;DHT22;571;50.930;6.926;2024-01-16T10:12:10;2.90;99.90
1165;DHT22;571;50.930;6.926;2024-01-16T10:14:37;2.90;99.90
1165;DHT22;571;50.930;6.926;2024-01-16T10:17:34;2.90;99.90
1165;DHT22;571;50.930;6.926;2024-01-16T10:20:11;2.90;99.90
1165;DHT22;571;50.930;6.926;2024-01-16T10:23:09;3.00;99.90
1165;DHT22;571;50.930;6.926;2024-01-16T10:26:07;3.10;99.90
1165;DHT22;571;50.930;6.926;2024-01-16T10:28:52;3.10;99.00
1165;DHT22;571;50.930;6.926;2024-01-16T10:31:48;3.10;99.40
1165;DHT22;571;50.930;6.926;2024-01-16T10:34:41;3.10;99.40
1165;DHT22;571;50.930;6.926;2024-01-16T10:37:11;3.10;99.20
1165;DHT22;571;50.930;6.926;2024-01-16T10:39:53;3.10;99.50
1165;DHT22;571;50.930;6.926;2024-01-16T10:42:29;3.10;99.00
1165;DHT22;571;50.930;6.926;2024-01-16T10:47:52;3.10;99.50
1165;DHT22;571;50.930;6.926;2024-01-16T10:52:15;3.10;99.60
1165;DHT22;571;50.930;6.926;2024-01-16T10:54:04;3.10;99.90
1165;DHT22;571;50.930;6.926;2024-01-16T10:57:17;3.20;99.40
1165;DHT22;571;50.930;6.926;2024-01-16T11:01:02;3.20;99.50
1165;DHT22;571;50.930;6.926;2024-01-16T11:03:54;3.20;99.60
1165;DHT22;571;50.930;6.926;2024-01-16T11:07:13;3.20;99.50
1165;DHT22;571;50.930;6.926;2024-01-16T12:04:25;3.60;96.90
1165;DHT22;571;50.930;6.926;2024-01-16T12:07:07;3.60;96.80
1165;DHT22;571;50.930;6.926;2024-01-16T12:10:45;3.60;96.00
1165;DHT22;571;50.930;6.926;2024-01-16T12:13:31;3.70;95.40
1165;DHT22;571;50.930;6.926;2024-01-16T12:16:28;3.80;95.50
1165;DHT22;571;50.930;6.926;2024-01-16T12:22:18;3.90;96.70
1165;DHT22;571;50.930;6.926;2024-01-16T12:28:30;4.00;96.50
1165;DHT22;571;50.930;6.926;2024-01-16T12:31:20;4.00;95.90
1165;DHT22;571;50.930;6.926;2024-01-16T12:34:28;4.10;94.40
1165;DHT22;571;50.930;6.926;2024-01-16T12:37:51;4.10;95.50
1165;DHT22;571;50.930;6.926;2024-01-16T12:50:16;4.00;95.00
1165;DHT22;571;50.930;6.926;2024-01-16T14:48:37;3.60;92.90
1165;DHT22;571;50.930;6.926;2024-01-16T15:01:18;3.40;94.00
1165;DHT22;571;50.930;6.926;2024-01-16T15:04:35;3.30;93.70
1165;DHT22;571;50.930;6.926;2024-01-16T15:11:11;3.20;93.40
1165;DHT22;571;50.930;6.926;2024-01-16T15:14:03;3.10;93.60
1165;DHT22;571;50.930;6.926;2024-01-16T15:16:54;3.10;94.20
1165;DHT22;571;50.930;6.926;2024-01-16T15:22:37;3.00;94.80
1165;DHT22;571;50.930;6.926;2024-01-16T15:25:21;3.00;94.80
1165;DHT22;571;50.930;6.926;2024-01-16T15:27:49;3.00;94.70
1165;DHT22;571;50.930;6.926;2024-01-16T15:30:22;2.90;95.10
1165;DHT22;571;50.930;6.926;2024-01-16T15:32:59;2.90;95.30
1165;DHT22;571;50.930;6.926;2024-01-16T15:35:25;2.90;95.50
1165;DHT22;571;50.930;6.926;2024-01-16T15:39:31;3.00;95.20
1165;DHT22;571;50.930;6.926;2024-01-16T15:47:51;2.80;96.40
1165;DHT22;571;50.930;6.926;2024-01-16T15:58:13;2.70;97.20
1165;DHT22;571;50.930;6.926;2024-01-16T16:05:19;2.70;95.10
1165;DHT22;571;50.930;6.926;2024-01-16T16:08:25;2.60;95.10
1165;DHT22;571;50.930;6.926;2024-01-16T16:21:19;2.40;97.10
1165;DHT22;571;50.930;6.926;2024-01-16T16:24:13;2.40;96.10
1165;DHT22;571;50.930;6.926;2024-01-16T16:31:26;2.30;97.00
1165;DHT22;571;50.930;6.926;2024-01-16T16:44:08;2.20;98.00
1165;DHT22;571;50.930;6.926;2024-01-16T16:54:05;2.10;97.50
1165;DHT22;571;50.930;6.926;2024-01-16T17:03:58;2.00;97.00
1165;DHT22;571;50.930;6.926;2024-01-16T17:10:07;2.00;97.30
1165;DHT22;571;50.930;6.926;2024-01-16T17:13:17;2.00;97.50
1165;DHT22;571;50.930;6.926;2024-01-16T17:16:36;1.90;97.60
1165;DHT22;571;50.930;6.926;2024-01-16T17:29:06;1.90;97.00
1165;DHT22;571;50.930;6.926;2024-01-16T17:32:53;1.80;97.20
1165;DHT22;571;50.930;6.926;2024-01-16T17:35:27;1.80;97.20
1165;DHT22;571;50.930;6.926;2024-01-16T17:42:01;1.80;97.70
1165;DHT22;571;50.930;6.926;2024-01-16T17:45:01;1.70;98.70
1165;DHT22;571;50.930;6.926;2024-01-16T17:48:03;1.70;98.20
1165;DHT22;571;50.930;6.926;2024-01-16T17:53:01;1.70;98.60
1165;DHT22;571;50.930;6.926;2024-01-16T18:03:43;1.60;98.50
1165;DHT22;571;50.930;6.926;2024-01-16T18:06:51;1.50;98.50
1165;DHT22;571;50.930;6.926;2024-01-16T18:09:50;1.50;98.40
1165;DHT22;571;50.930;6.926;2024-01-16T18:16:06;1.50;98.20
1165;DHT22;571;50.930;6.926;2024-01-16T18:19:17;1.40;99.10
1165;DHT22;571;50.930;6.926;2024-01-16T18:22:18;1.40;99.40
1165;DHT22;571;50.930;6.926;2024-01-16T18:25:26;1.40;99.10
1165;DHT22;571;50.930;6.926;2024-01-16T18:29:50;1.40;99.10
1165;DHT22;571;50.930;6.926;2024-01-16T18:34:58;1.30;99.30
1165;DHT22;571;50.930;6.926;2024-01-16T18:38:36;1.30;99.10
1165;DHT22;571;50.930;6.926;2024-01-16T18:41:33;1.30;99.20
1165;DHT22;571;50.930;6.926;2024-01-16T18:44:46;1.30;99.50
1165;DHT22;571;50.930;6.926;2024-01-16T18:50:58;1.20;99.80
1165;DHT22;571;50.930;6.926;2024-01-16T18:57:23;1.20;99.80
1165;DHT22;571;50.930;6.926;2024-01-16T19:00:22;1.10;99.80
1165;DHT22;571;50.930;6.926;2024-01-16T19:03:06;1.10;99.80
1165;DHT22;571;50.930;6.926;2024-01-16T19:05:54;1.10;99.60
1165;DHT22;571;50.930;6.926;2024-01-16T19:08:56;1.10;99.90
1165;DHT22;571;50.930;6.926;2024-01-16T19:11:26;1.10;99.90
1165;DHT22;571;50.930;6.926;2024-01-16T19:14:11;1.10;99.90
1165;DHT22;571;50.930;6.926;2024-01-16T19:16:51;1.00;99.90
1165;DHT22;571;50.930;6.926;2024-01-16T19:19:37;1.00;99.90
1165;DHT22;571;50.930;6.926;2024-01-16T19:22:14;1.00;99.90
1165;DHT22;571;50.930;6.926;2024-01-16T19:24:41;1.00;99.90
1165;DHT22;571;50.930;6.926;2024-01-16T19:27:08;1.00;99.90
1165;DHT22;571;50.930;6.926;2024-01-16T19:30:01;1.00;99.90
1165;DHT22;571;50.930;6.926;2024-01-16T19:32:46;1.10;99.50
1165;DHT22;571;50.930;6.926;2024-01-16T19:35:18;1.00;99.60
1165;DHT22;571;50.930;6.926;2024-01-16T19:37:58;1.00;99.90
1165;DHT22;571;50.930;6.926;2024-01-16T19:40:39;1.00;99.90
1165;DHT22;571;50.930;6.926;2024-01-16T19:43:14;1.00;99.90
1165;DHT22;571;50.930;6.926;2024-01-16T19:45:50;1.00;99.80
1165;DHT22;571;50.930;6.926;2024-01-16T19:48:36;0.90;99.40
1165;DHT22;571;50.930;6.926;2024-01-16T19:51:11;0.90;99.30
1165;DHT22;571;50.930;6.926;2024-01-16T19:53:43;0.90;99.30
1165;DHT22;571;50.930;6.926;2024-01-16T19:56:19;0.90;99.80
1165;DHT22;571;50.930;6.926;2024-01-16T19:58:46;0.90;99.90
1165;DHT22;571;50.930;6.926;2024-01-16T20:01:15;0.90;99.90
1165;DHT22;571;50.930;6.926;2024-01-16T20:03:58;0.90;99.90
1165;DHT22;571;50.930;6.926;2024-01-16T20:06:40;0.90;99.90
1165;DHT22;571;50.930;6.926;2024-01-16T20:09:10;0.90;99.90
1165;DHT22;571;50.930;6.926;2024-01-16T20:11:43;0.90;99.50
1165;DHT22;571;50.930;6.926;2024-01-16T20:14:11;0.90;99.80
1165;DHT22;571;50.930;6.926;2024-01-16T20:16:38;0.90;99.90
1165;DHT22;571;50.930;6.926;2024-01-16T20:19:06;0.90;99.50
1165;DHT22;571;50.930;6.926;2024-01-16T20:21:34;0.80;99.50
1165;DHT22;571;50.930;6.926;2024-01-16T20:24:00;0.80;99.60
1165;DHT22;571;50.930;6.926;2024-01-16T20:26:31;0.80;99.30
1165;DHT22;571;50.930;6.926;2024-01-16T20:29:01;0.80;99.10
1165;DHT22;571;50.930;6.926;2024-01-16T20:31:58;0.80;98.80
1165;DHT22;571;50.930;6.926;2024-01-16T20:34:28;0.80;99.40
1165;DHT22;571;50.930;6.926;2024-01-16T20:37:07;0.80;99.50
1165;DHT22;571;50.930;6.926;2024-01-16T20:50:25;0.70;98.40
1165;DHT22;571;50.930;6.926;2024-01-16T20:57:22;0.70;98.60
1165;DHT22;571;50.930;6.926;2024-01-16T21:00:17;0.60;98.50
1165;DHT22;571;50.930;6.926;2024-01-16T21:03:05;0.60;98.30
1165;DHT22;571;50.930;6.926;2024-01-16T21:12:54;0.50;98.60
1165;DHT22;571;50.930;6.926;2024-01-16T21:15:43;0.50;98.40
1165;DHT22;571;50.930;6.926;2024-01-16T21:18:53;0.50;98.50
1165;DHT22;571;50.930;6.926;2024-01-16T21:25:57;0.50;98.80
1165;DHT22;571;50.930;6.926;2024-01-16T21:29:38;0.40;99.00
1165;DHT22;571;50.930;6.926;2024-01-16T21:44:54;0.40;98.40
1165;DHT22;571;50.930;6.926;2024-01-16T21:50:41;0.40;98.50
1165;DHT22;571;50.930;6.926;2024-01-16T21:53:10;0.40;99.10
1165;DHT22;571;50.930;6.926;2024-01-16T21:56:17;0.40;99.20
1165;DHT22;571;50.930;6.926;2024-01-16T22:03:02;0.30;99.30
1165;DHT22;571;50.930;6.926;2024-01-16T22:09:01;0.30;99.60
1165;DHT22;571;50.930;6.926;2024-01-16T22:17:35;0.30;98.60
1165;DHT22;571;50.930;6.926;2024-01-16T22:19:40;0.30;98.70
1165;DHT22;571;50.930;6.926;2024-01-16T22:22:30;0.30;99.20
1165;DHT22;571;50.930;6.926;2024-01-16T22:25:01;0.30;98.90
1165;DHT22;571;50.930;6.926;2024-01-16T22:27:29;0.30;98.90
1165;DHT22;571;50.930;6.926;2024-01-16T22:30:02;0.20;98.90
1165;DHT22;571;50.930;6.926;2024-01-16T22:32:31;0.30;99.30
1165;DHT22;571;50.930;6.926;2024-01-16T22:35:04;0.20;99.40
1165;DHT22;571;50.930;6.926;2024-01-16T22:37:35;0.20;99.50
1165;DHT22;571;50.930;6.926;2024-01-16T22:40:10;0.20;99.30
1165;DHT22;571;50.930;6.926;2024-01-16T22:42:38;0.20;99.30
1165;DHT22;571;50.930;6.926;2024-01-16T22:45:12;0.20;99.30
1165;DHT22;571;50.930;6.926;2024-01-16T22:47:43;0.20;99.20
1165;DHT22;571;50.930;6.926;2024-01-16T22:50:21;0.20;99.20
1165;DHT22;571;50.930;6.926;2024-01-16T22:52:51;0.20;99.60
1165;DHT22;571;50.930;6.926;2024-01-16T22:55:27;0.20;99.90
1165;DHT22;571;50.930;6.926;2024-01-16T22:57:59;0.20;99.90
